createdAt,value
2023-02-22T06:03:08.276Z,22.35
2023-02-22T06:56:11.207Z,22.92
2023-02-22T06:57:11.277Z,22.92
2023-02-22T06:58:11.326Z,22.93
2023-02-22T06:59:11.387Z,22.93
2023-02-22T07:00:11.438Z,22.93
2023-02-22T07:01:11.536Z,22.92
2023-02-22T07:02:11.551Z,22.93
2023-02-22T07:03:11.626Z,22.93
2023-02-22T07:04:11.706Z,22.93
2023-02-22T07:05:11.726Z,22.93
2023-02-22T07:06:11.784Z,23.00
2023-02-22T07:09:11.949Z,23.00
2023-02-22T07:10:12.017Z,23.02
2023-02-22T07:11:12.049Z,23.10
2023-02-22T07:12:12.097Z,23.08
2023-02-22T07:13:11.066Z,23.08
2023-02-22T07:14:12.099Z,23.08
2023-02-22T07:15:12.128Z,23.07
2023-02-22T07:16:12.177Z,23.06
2023-02-22T07:17:11.242Z,23.04
2023-02-22T07:18:12.308Z,23.03
2023-02-22T07:19:12.358Z,23.03
2023-02-22T07:20:11.431Z,23.02
2023-02-22T07:21:12.489Z,23.02
2023-02-22T07:22:11.550Z,23.03
2023-02-22T07:23:12.629Z,23.07
2023-02-22T07:24:12.679Z,23.07
2023-02-22T07:25:12.719Z,23.07
2023-02-22T07:26:12.777Z,23.06
2023-02-22T07:27:12.845Z,23.06
2023-02-22T07:28:12.896Z,23.06
2023-02-22T07:29:12.967Z,23.06
2023-02-22T07:30:12.049Z,23.07
2023-02-22T07:31:13.067Z,23.07
2023-02-22T07:32:13.338Z,23.08
2023-02-22T07:33:13.379Z,23.08
2023-02-22T07:34:13.230Z,23.09
2023-02-22T07:35:13.262Z,23.10
2023-02-22T07:37:12.366Z,23.09
2023-02-22T07:38:13.426Z,23.09
2023-02-22T07:39:13.948Z,23.10
2023-02-22T07:40:13.561Z,23.09
2023-02-22T07:41:13.590Z,23.10
2023-02-22T07:42:13.620Z,23.11
2023-02-22T07:43:13.661Z,23.12
2023-02-22T07:44:13.703Z,23.12
2023-02-22T07:46:13.785Z,23.13
2023-02-22T07:47:13.829Z,23.14
2023-02-22T07:49:13.924Z,23.15
2023-02-22T07:50:13.959Z,23.16
2023-02-22T07:51:14.017Z,23.16
2023-02-22T07:53:13.074Z,23.31
2023-02-22T07:55:13.204Z,23.29
2023-02-22T07:56:14.214Z,23.27
2023-02-22T07:57:14.266Z,23.25
2023-02-22T07:58:13.299Z,23.27
2023-02-22T07:59:14.428Z,23.27
2023-02-22T08:00:13.435Z,23.26
2023-02-22T08:02:13.488Z,23.27
2023-02-22T08:31:14.425Z,23.48
2023-02-22T08:34:14.424Z,23.44
2023-02-22T08:36:14.481Z,23.51
2023-02-22T08:40:15.023Z,23.51
2023-02-22T08:48:14.724Z,23.44
2023-02-22T08:54:14.859Z,23.43
2023-02-22T09:02:15.012Z,23.39
2023-02-22T09:04:15.055Z,23.39
2023-02-22T09:11:15.460Z,23.37
2023-02-22T09:13:15.231Z,23.37
2023-02-22T09:15:15.330Z,23.36
2023-02-22T09:18:15.399Z,23.35
2023-02-22T09:20:15.403Z,23.34
2023-02-22T11:24:19.537Z,23.49
2023-02-22T11:25:19.575Z,23.49
2023-02-22T11:26:19.598Z,23.49
2023-02-22T11:34:19.898Z,23.52
2023-02-22T12:59:21.726Z,23.42
2023-02-22T13:03:21.703Z,23.42
2023-02-22T13:04:21.715Z,23.43
2023-02-22T13:07:21.795Z,23.41
2023-02-22T13:08:21.817Z,23.42
2023-02-22T13:09:21.824Z,23.42
2023-02-22T13:11:21.866Z,23.43
2023-02-22T13:12:21.869Z,23.41
2023-02-22T13:13:21.892Z,23.42
2023-02-22T13:14:21.905Z,23.42
2023-02-22T13:15:21.927Z,23.41
2023-02-22T13:16:22.076Z,23.42
2023-02-22T13:17:21.939Z,23.42
2023-02-22T13:19:21.964Z,23.42
2023-02-22T13:20:21.978Z,23.43
2023-02-22T13:21:21.997Z,23.42
2023-02-22T13:22:24.455Z,23.43
2023-02-22T13:23:21.996Z,23.44
2023-02-22T13:24:21.991Z,23.45
2023-02-22T13:25:22.011Z,23.45
2023-02-22T13:26:21.981Z,23.45
2023-02-22T13:27:21.982Z,23.45
2023-02-22T13:28:22.618Z,23.44
2023-02-22T13:32:22.029Z,23.51
2023-02-22T13:33:21.941Z,23.52
2023-02-22T13:35:21.939Z,23.51
2023-02-22T13:36:21.937Z,23.51
2023-02-22T13:38:21.900Z,23.49
2023-02-22T13:39:21.902Z,23.48
2023-02-22T13:41:21.891Z,23.47
2023-02-22T13:42:21.871Z,23.45
2023-02-22T13:45:21.861Z,23.44
2023-02-22T13:46:21.939Z,23.45
2023-02-22T13:47:21.876Z,23.44
2023-02-22T13:48:21.866Z,23.44
2023-02-22T13:49:23.552Z,23.44
2023-02-22T13:50:21.811Z,23.44
2023-02-22T13:52:21.816Z,23.45
2023-02-22T13:53:21.792Z,23.44
2023-02-22T13:55:21.770Z,23.43
2023-02-22T13:56:21.777Z,23.43
2023-02-22T13:57:21.771Z,23.43
2023-02-22T13:59:21.765Z,23.45
2023-02-22T14:00:21.742Z,23.45
2023-02-22T14:01:21.734Z,23.45
2023-02-22T14:02:21.729Z,23.45
2023-02-22T14:04:21.722Z,23.45
2023-02-22T14:05:21.754Z,23.44
2023-02-22T14:06:21.701Z,23.43
2023-02-22T14:29:21.808Z,23.31
2023-02-22T14:30:21.912Z,23.30
2023-02-22T14:31:34.961Z,23.30
2023-02-22T14:32:22.002Z,23.29
2023-02-22T14:33:21.903Z,23.30
2023-02-22T14:34:21.901Z,23.30
2023-02-22T14:35:27.515Z,23.30
2023-02-22T14:36:21.905Z,23.29
2023-02-22T14:37:21.895Z,23.31
2023-02-22T14:38:21.870Z,23.31
2023-02-22T14:39:21.853Z,23.30
2023-02-22T14:40:21.859Z,23.31
2023-02-22T14:41:22.178Z,23.31
2023-02-22T14:45:21.829Z,23.32
2023-02-22T14:46:21.851Z,23.32
2023-02-22T14:47:21.817Z,23.32
2023-02-22T14:48:21.814Z,23.32
2023-02-22T14:49:21.803Z,23.32
2023-02-22T14:52:21.784Z,23.33
2023-02-22T14:53:21.811Z,23.33
2023-02-22T14:54:21.769Z,23.32
2023-02-22T14:56:21.742Z,23.31
2023-02-22T14:57:21.748Z,23.32
2023-02-22T14:59:21.757Z,23.32
2023-02-22T15:00:21.733Z,23.31
2023-02-22T15:07:21.949Z,23.30
2023-02-22T15:10:22.020Z,23.32
2023-02-22T15:14:26.238Z,23.33
2023-02-22T15:16:22.326Z,23.32
2023-02-22T15:17:22.315Z,23.31
2023-02-22T15:18:22.325Z,23.31
2023-02-22T15:19:22.356Z,23.33
2023-02-22T15:20:22.401Z,23.33
2023-02-22T15:21:22.446Z,23.32
2023-02-22T15:22:22.498Z,23.33
2023-02-22T15:23:22.539Z,23.33
2023-02-22T15:25:22.615Z,23.33
2023-02-22T15:26:22.655Z,23.34
2023-02-22T15:27:22.704Z,23.35
2023-02-22T15:28:22.764Z,23.36
2023-02-22T15:29:22.790Z,23.40
2023-02-22T15:30:22.858Z,23.39
2023-02-22T15:31:21.938Z,23.46
2023-02-22T15:32:22.169Z,23.46
2023-02-22T15:33:23.083Z,23.43
2023-02-22T15:34:22.068Z,23.42
2023-02-22T15:35:22.086Z,23.40
2023-02-22T15:36:23.115Z,23.40
2023-02-22T15:37:23.193Z,23.39
2023-02-22T15:38:23.211Z,23.38
2023-02-22T15:39:23.429Z,23.36
2023-02-22T15:40:23.364Z,23.36
2023-02-22T15:41:22.347Z,23.35
2023-02-22T15:42:23.394Z,23.33
2023-02-22T15:43:22.372Z,23.31
2023-02-22T15:44:24.230Z,23.27
2023-02-22T15:45:23.489Z,23.25
2023-02-22T15:46:23.496Z,23.22
2023-02-22T15:47:22.549Z,23.20
2023-02-22T15:48:22.673Z,23.17
2023-02-22T15:49:23.620Z,23.15
2023-02-22T15:50:23.768Z,23.13
2023-02-22T15:51:23.727Z,23.10
2023-02-22T15:52:23.785Z,23.08
2023-02-22T15:53:23.850Z,23.06
2023-02-22T15:54:27.531Z,23.04
2023-02-22T15:55:25.678Z,23.03
2023-02-22T15:56:22.848Z,23.00
2023-02-22T15:57:23.863Z,22.99
2023-02-22T15:58:23.835Z,22.96
2023-02-22T15:59:23.825Z,22.94
2023-02-22T16:00:23.812Z,22.93
2023-02-22T16:01:23.890Z,22.93
2023-02-22T16:02:23.894Z,22.91
2023-02-22T16:03:22.797Z,22.89
2023-02-22T16:04:22.803Z,22.84
2023-02-22T16:05:22.778Z,22.80
2023-02-22T16:06:22.773Z,22.79
2023-02-22T16:07:23.762Z,22.75
2023-02-22T16:08:22.753Z,22.70
2023-02-22T16:09:23.746Z,22.65
2023-02-22T16:10:22.750Z,22.61
2023-02-22T16:11:22.748Z,22.58
2023-02-22T16:12:22.730Z,22.56
2023-02-22T16:13:31.397Z,22.55
2023-02-22T16:14:23.705Z,22.53
2023-02-22T16:15:22.689Z,22.52
2023-02-22T16:16:23.887Z,22.53
2023-02-22T16:17:23.684Z,22.51
2023-02-22T16:18:23.684Z,22.49
2023-02-22T16:19:23.663Z,22.50
2023-02-22T16:20:23.669Z,22.50
2023-02-22T16:21:23.656Z,22.50
2023-02-22T16:22:22.640Z,22.51
2023-02-22T16:23:22.644Z,22.52
2023-02-22T16:26:23.621Z,22.56
